Time;durP1;ratioP1;P1;durP2;ratioP2;P2;SDS_P1;SDS_P2;PMS_P1;PMS_P2;Temp;Humidity;BMP_temperature;BMP_pressure;BME280_temperature;BME280_humidity;BME280_pressure;Samples;Min_cycle;Max_cycle;Signal;HPM_P1;HPM_P2
2021/12/16 00:32:27;;;;;;;16.33;6.70;;;;;;;7.36;100.00;102931.69;5034616;28;20057;-74
2021/12/16 00:34:54;;;;;;;15.52;6.97;;;;;;;7.36;100.00;102931.69;5043040;28;20510;-75
2021/12/16 00:37:21;;;;;;;24.77;7.47;;;;;;;7.38;100.00;102932.44;5014359;28;20607;-75
2021/12/16 00:39:49;;;;;;;20.10;7.45;;;;;;;7.41;100.00;102921.88;5028750;28;20557;-73
2021/12/16 00:56:15;;;;;;;19.05;7.53;;;;;;;7.39;100.00;102927.16;4998077;28;20033;-74
2021/12/16 00:58:53;;;;;;;23.48;7.90;;;;;;;7.36;100.00;102919.47;4980025;28;20046;-74
2021/12/16 01:04:37;;;;;;;24.05;8.35;;;;;;;7.40;100.00;102939.31;5035838;28;20087;-74
2021/12/16 01:35:38;;;;;;;21.77;10.10;;;;;;;7.44;100.00;102958.28;5026461;28;20120;-76
2021/12/16 01:38:16;;;;;;;19.50;9.40;;;;;;;7.43;100.00;102966.19;5049776;28;20055;-75
2021/12/16 01:51:56;;;;;;;20.70;9.60;;;;;;;7.37;100.00;102969.94;5039142;28;20117;-74
2021/12/16 01:57:23;;;;;;;24.85;10.80;;;;;;;7.32;100.00;102970.13;5050590;28;19925;-74
2021/12/16 02:00:00;;;;;;;21.42;10.63;;;;;;;7.32;100.00;102979.72;5022180;28;20494;-75
2021/12/16 02:02:41;;;;;;;22.55;10.32;;;;;;;7.39;100.00;102971.53;5016200;28;20037;-75
2021/12/16 02:10:46;;;;;;;26.58;11.00;;;;;;;7.32;100.00;102966.69;5030988;28;20062;-73
2021/12/16 02:32:35;;;;;;;28.77;11.77;;;;;;;7.38;100.00;102995.09;5049635;28;20029;-76
2021/12/16 02:37:52;;;;;;;27.77;12.32;;;;;;;7.33;100.00;102991.88;5081227;28;20041;-74
2021/12/16 02:40:37;;;;;;;27.60;12.45;;;;;;;7.39;100.00;103002.03;5077365;28;20032;-74
2021/12/16 02:43:38;;;;;;;29.08;13.07;;;;;;;7.40;100.00;102998.50;5098626;28;20031;-74
2021/12/16 02:48:43;;;;;;;27.30;13.00;;;;;;;7.34;100.00;102998.78;5112384;28;20508;-73
2021/12/16 02:51:16;;;;;;;32.55;14.05;;;;;;;7.39;100.00;103000.25;5080658;28;20039;-74
2021/12/16 02:53:49;;;;;;;32.63;14.35;;;;;;;7.48;100.00;102992.91;5075904;28;20040;-75
2021/12/16 02:56:18;;;;;;;33.03;13.85;;;;;;;7.33;100.00;102991.88;5096789;28;20039;-75
2021/12/16 02:58:57;;;;;;;31.25;14.70;;;;;;;7.33;100.00;102991.88;5077186;28;20031;-74
2021/12/16 03:01:37;;;;;;;38.63;15.48;;;;;;;7.36;100.00;102999.56;5079778;27;20803;-72
2021/12/16 03:04:12;;;;;;;41.05;15.20;;;;;;;7.24;100.00;103005.34;5066412;28;20065;-74
2021/12/16 03:06:45;;;;;;;39.42;16.85;;;;;;;7.27;100.00;103005.19;5062050;28;20537;-73
2021/12/16 03:09:18;;;;;;;37.90;15.93;;;;;;;7.20;100.00;103013.31;5060883;28;20121;-74
2021/12/16 03:14:56;;;;;;;42.85;17.20;;;;;;;7.30;100.00;103010.28;5100068;28;20040;-75
2021/12/16 03:17:47;;;;;;;46.65;17.30;;;;;;;7.23;100.00;103012.31;5076750;27;20039;-74
2021/12/16 03:20:32;;;;;;;42.13;17.50;;;;;;;7.15;100.00;103032.69;5080154;28;20100;-75
2021/12/16 03:29:10;;;;;;;42.67;18.33;;;;;;;7.22;100.00;103028.91;5077550;28;20047;-75
2021/12/16 03:34:59;;;;;;;36.65;17.80;;;;;;;7.14;100.00;103028.38;5076007;28;20127;-75
2021/12/16 03:37:30;;;;;;;49.10;19.25;;;;;;;7.24;100.00;103021.84;5081815;28;20038;-72
2021/12/16 03:40:06;;;;;;;43.17;19.75;;;;;;;7.14;100.00;103016.19;5097363;28;20057;-75
2021/12/16 03:43:02;;;;;;;48.60;19.52;;;;;;;7.16;100.00;103024.81;5085114;28;20325;-73
2021/12/16 03:48:38;;;;;;;48.70;20.25;;;;;;;7.15;100.00;103025.72;5089645;28;20044;-77
2021/12/16 03:51:09;;;;;;;51.75;20.98;;;;;;;7.21;100.00;103021.97;5090622;28;20035;-75
2021/12/16 03:53:36;;;;;;;42.88;20.25;;;;;;;7.13;100.00;103024.09;5048699;28;20058;-77
2021/12/16 03:56:03;;;;;;;52.95;21.40;;;;;;;7.14;100.00;103015.34;5059236;28;20040;-77
2021/12/16 03:58:34;;;;;;;50.50;21.63;;;;;;;7.09;100.00;103007.72;5056190;28;20042;-76
2021/12/16 04:01:04;;;;;;;51.80;21.50;;;;;;;7.20;100.00;103028.97;5040367;28;20444;-76
2021/12/16 04:03:31;;;;;;;53.63;22.13;;;;;;;7.28;100.00;103020.78;5055744;28;20040;-77
2021/12/16 04:05:59;;;;;;;48.60;22.88;;;;;;;7.27;100.00;103031.31;5051494;28;20379;-77
2021/12/16 04:08:25;;;;;;;55.08;23.20;;;;;;;7.16;100.00;103013.53;5055789;28;20036;-75
2021/12/16 04:11:05;;;;;;;54.63;22.95;;;;;;;7.22;100.00;103027.13;5054179;28;20459;-76
2021/12/16 04:13:54;;;;;;;54.88;22.92;;;;;;;7.10;100.00;103035.53;5061894;28;20122;-76
2021/12/16 04:16:40;;;;;;;54.42;23.08;;;;;;;7.12;100.00;103038.03;5052758;28;20742;-76
2021/12/16 04:19:13;;;;;;;54.13;24.35;;;;;;;7.09;100.00;103031.22;5071717;28;20039;-77
2021/12/16 04:21:45;;;;;;;67.32;24.75;;;;;;;7.04;100.00;103047.97;5066719;28;20039;-76
2021/12/16 04:24:12;;;;;;;55.13;24.23;;;;;;;7.04;100.00;103051.44;5056913;28;20586;-76
2021/12/16 04:26:40;;;;;;;59.90;25.42;;;;;;;7.03;100.00;103047.16;5072920;28;20047;-78
2021/12/16 04:29:07;;;;;;;63.88;24.55;;;;;;;7.00;100.00;103055.94;5053804;28;20577;-77
2021/12/16 04:31:35;;;;;;;59.65;26.25;;;;;;;7.12;100.00;103053.72;5072984;28;20050;-76
2021/12/16 04:34:03;;;;;;;57.53;26.15;;;;;;;7.06;100.00;103051.38;5057481;28;20039;-75
2021/12/16 04:36:35;;;;;;;65.47;25.90;;;;;;;7.08;100.00;103050.38;5068280;28;20040;-77
2021/12/16 04:39:07;;;;;;;61.05;24.75;;;;;;;7.20;100.00;103046.41;5071243;28;20054;-77
2021/12/16 04:41:33;;;;;;;63.03;25.55;;;;;;;7.24;100.00;103041.91;5056525;28;20060;-78
2021/12/16 04:44:02;;;;;;;62.15;25.92;;;;;;;7.31;100.00;103044.16;5037103;28;20024;-77
2021/12/16 04:46:30;;;;;;;66.43;26.23;;;;;;;7.24;100.00;103042.75;5061703;28;20040;-76
2021/12/16 04:49:00;;;;;;;64.07;26.00;;;;;;;7.26;100.00;103058.34;5054220;28;20103;-76
2021/12/16 04:51:36;;;;;;;63.92;24.58;;;;;;;7.26;100.00;103056.56;5054018;28;20032;-76
2021/12/16 04:54:04;;;;;;;68.40;25.58;;;;;;;7.20;100.00;103054.22;5047852;28;20388;-77
2021/12/16 04:56:33;;;;;;;60.53;25.00;;;;;;;7.11;100.00;103065.06;5057135;28;20131;-77
2021/12/16 04:59:10;;;;;;;69.15;26.23;;;;;;;7.14;100.00;103059.69;5070486;28;20083;-77
2021/12/16 05:01:42;;;;;;;69.28;26.83;;;;;;;7.19;100.00;103070.78;5072520;28;20032;-78
2021/12/16 05:04:08;;;;;;;65.40;26.48;;;;;;;7.16;100.00;103071.78;5057840;28;20398;-78
2021/12/16 05:06:35;;;;;;;62.38;26.08;;;;;;;7.09;100.00;103077.34;5040296;28;20565;-77
2021/12/16 05:09:04;;;;;;;65.80;27.17;;;;;;;7.03;100.00;103083.69;5056794;28;20065;-77
2021/12/16 05:11:42;;;;;;;65.78;28.17;;;;;;;6.99;100.00;103089.94;5039177;28;20448;-77
2021/12/16 05:14:08;;;;;;;73.03;28.23;;;;;;;7.04;100.00;103090.56;5035987;28;20032;-77
2021/12/16 05:16:39;;;;;;;64.07;26.88;;;;;;;7.07;100.00;103090.47;5067280;28;20035;-76
2021/12/16 05:19:05;;;;;;;71.20;27.92;;;;;;;7.06;100.00;103100.97;5057057;28;20047;-77
2021/12/16 05:21:53;;;;;;;74.88;29.65;;;;;;;7.04;100.00;103114.06;5050299;28;20036;-76
2021/12/16 05:24:26;;;;;;;73.75;29.15;;;;;;;6.99;100.00;103116.03;5035616;28;20054;-76
2021/12/16 05:27:13;;;;;;;70.82;27.60;;;;;;;7.01;100.00;103106.38;5069067;28;20032;-76
2021/12/16 05:29:41;;;;;;;76.90;27.88;;;;;;;6.94;100.00;103110.16;5063343;28;20047;-76
2021/12/16 05:32:09;;;;;;;77.55;29.85;;;;;;;6.96;100.00;103119.63;5068240;28;20554;-76
2021/12/16 05:34:35;;;;;;;78.38;30.08;;;;;;;7.13;100.00;103118.06;5057780;28;20084;-76
2021/12/16 05:37:04;;;;;;;74.22;28.77;;;;;;;7.04;100.00;103128.88;5036796;28;20032;-76
2021/12/16 05:39:32;;;;;;;85.50;30.77;;;;;;;7.03;100.00;103117.59;5072444;28;20134;-76
2021/12/16 05:42:16;;;;;;;89.20;30.02;;;;;;;6.98;100.00;103125.63;5059930;28;20036;-77
2021/12/16 05:44:42;;;;;;;77.93;30.65;;;;;;;7.11;100.00;103131.16;5055199;28;20024;-77
2021/12/16 05:47:08;;;;;;;79.55;30.80;;;;;;;7.03;100.00;103130.66;5073224;28;20097;-76
2021/12/16 05:49:37;;;;;;;84.10;32.78;;;;;;;7.05;100.00;103133.19;5053339;28;20040;-76
2021/12/16 05:52:03;;;;;;;79.03;32.28;;;;;;;7.08;100.00;103131.28;5068713;28;20029;-76
2021/12/16 05:54:30;;;;;;;90.68;32.90;;;;;;;7.16;100.00;103134.44;5056994;28;20043;-77
2021/12/16 05:57:07;;;;;;;80.85;30.80;;;;;;;7.12;100.00;103139.84;5058011;28;20081;-77
2021/12/16 05:59:34;;;;;;;79.95;30.17;;;;;;;7.11;100.00;103145.97;5053349;28;20118;-75
2021/12/16 06:02:01;;;;;;;81.05;29.98;;;;;;;7.13;100.00;103145.00;5056514;28;20139;-75
2021/12/16 06:04:33;;;;;;;78.15;31.33;;;;;;;7.10;100.00;103133.84;5056921;28;20039;-76
2021/12/16 06:07:05;;;;;;;71.53;29.38;;;;;;;7.10;100.00;103142.53;5032361;28;20059;-76
2021/12/16 06:09:31;;;;;;;78.22;31.17;;;;;;;7.21;100.00;103155.09;5072756;28;20113;-76
2021/12/16 06:11:57;;;;;;;75.60;30.73;;;;;;;7.17;100.00;103158.75;5072872;28;20628;-76
2021/12/16 06:14:29;;;;;;;68.93;30.38;;;;;;;7.14;100.00;103151.06;5057958;28;20040;-75
2021/12/16 06:27:48;;;;;;;77.65;29.75;;;;;;;7.17;100.00;103172.66;5073418;28;20051;-77
2021/12/16 06:30:19;;;;;;;71.65;27.98;;;;;;;7.17;100.00;103170.03;5072368;28;20073;-76
2021/12/16 06:32:44;;;;;;;73.78;27.85;;;;;;;7.16;100.00;103181.41;5039768;28;20130;-76
2021/12/16 06:35:11;;;;;;;76.65;28.52;;;;;;;7.18;100.00;103181.34;5053419;28;20032;-76
2021/12/16 06:37:37;;;;;;;65.03;28.35;;;;;;;7.16;100.00;103181.41;5039202;28;20508;-75
2021/12/16 06:40:12;;;;;;;68.22;27.77;;;;;;;7.26;100.00;103188.88;5038482;28;20398;-77
2021/12/16 06:42:55;;;;;;;68.05;27.48;;;;;;;7.25;100.00;103179.31;5070453;28;20027;-77
2021/12/16 06:45:26;;;;;;;62.97;25.92;;;;;;;7.25;100.00;103202.81;5070999;28;20027;-76
2021/12/16 06:48:01;;;;;;;65.78;27.75;;;;;;;7.18;100.00;103200.47;5071599;28;20032;-75
2021/12/16 06:52:58;;;;;;;64.95;25.77;;;;;;;7.18;100.00;103220.50;5052037;28;20025;-75
2021/12/16 06:55:35;;;;;;;60.08;25.40;;;;;;;7.20;100.00;103224.75;5063068;28;20024;-76
2021/12/16 06:58:11;;;;;;;61.30;26.10;;;;;;;7.17;100.00;103213.59;5056764;28;20500;-76
2021/12/16 07:00:43;;;;;;;66.35;25.23;;;;;;;7.33;100.00;103224.25;5087324;28;21639;-75
2021/12/16 07:03:18;;;;;;;55.30;24.27;;;;;;;7.32;100.00;103218.16;5055557;28;20036;-76
2021/12/16 07:05:46;;;;;;;60.65;25.38;;;;;;;7.28;100.00;103224.41;5073467;28;20036;-76
2021/12/16 07:08:15;;;;;;;56.92;23.42;;;;;;;7.28;100.00;103224.41;5050506;28;20136;-76
2021/12/16 07:10:45;;;;;;;65.72;24.48;;;;;;;7.36;100.00;103229.31;5050722;28;20028;-77
2021/12/16 07:13:19;;;;;;;62.00;25.60;;;;;;;7.37;100.00;103242.31;5051132;28;20137;-75
2021/12/16 07:15:47;;;;;;;59.78;23.30;;;;;;;7.35;100.00;103231.09;5056506;28;20101;-76
2021/12/16 07:18:13;;;;;;;53.20;23.08;;;;;;;7.41;100.00;103237.81;5038982;28;20748;-76
2021/12/16 07:20:40;;;;;;;57.63;22.90;;;;;;;7.33;100.00;103242.53;5055965;28;20039;-76
2021/12/16 07:23:08;;;;;;;56.85;23.77;;;;;;;7.31;100.00;103249.53;5060190;28;20537;-76
2021/12/16 07:25:35;;;;;;;59.45;23.42;;;;;;;7.28;100.00;103257.53;5057430;28;20152;-76
2021/12/16 07:28:04;;;;;;;67.32;24.23;;;;;;;7.24;100.00;103255.97;5061340;28;20024;-76
2021/12/16 07:30:30;;;;;;;56.70;22.83;;;;;;;7.21;100.00;103265.63;5058280;28;20040;-78
2021/12/16 07:32:56;;;;;;;61.22;22.95;;;;;;;7.19;100.00;103272.63;5043097;28;20028;-75
2021/12/16 07:35:26;;;;;;;58.53;22.85;;;;;;;7.18;100.00;103278.78;5075583;28;20113;-76
2021/12/16 07:37:52;;;;;;;63.67;22.85;;;;;;;7.21;100.00;103277.78;5071648;28;20028;-76
2021/12/16 07:40:22;;;;;;;65.32;23.40;;;;;;;7.23;100.00;103281.19;5079370;28;20042;-76
2021/12/16 07:45:41;;;;;;;58.05;22.40;;;;;;;7.23;100.00;103289.03;5060548;28;20466;-78
2021/12/16 07:48:08;;;;;;;59.47;24.55;;;;;;;7.22;100.00;103295.16;5096720;28;20172;-77
2021/12/16 07:50:34;;;;;;;55.15;22.80;;;;;;;7.24;100.00;103293.34;5078722;28;20043;-76
2021/12/16 07:53:00;;;;;;;50.88;22.33;;;;;;;7.28;100.00;103301.91;5060690;28;20516;-77
2021/12/16 07:55:26;;;;;;;58.17;23.60;;;;;;;7.25;100.00;103297.63;5059558;28;20486;-77
2021/12/16 07:57:52;;;;;;;62.75;24.40;;;;;;;7.28;100.00;103307.97;5078234;28;20035;-77
2021/12/16 08:00:22;;;;;;;68.45;23.45;;;;;;;7.20;100.00;103313.50;5057073;28;20032;-77
2021/12/16 08:02:48;;;;;;;62.75;24.17;;;;;;;7.33;100.00;103308.63;5061363;28;20039;-77
2021/12/16 08:05:17;;;;;;;62.63;22.88;;;;;;;7.40;100.00;103317.94;5046429;28;20020;-78
2021/12/16 08:07:43;;;;;;;62.38;23.63;;;;;;;7.32;100.00;103324.38;5062389;28;20031;-77
2021/12/16 08:10:13;;;;;;;53.60;22.88;;;;;;;7.40;100.00;103322.28;5069531;28;20467;-76
2021/12/16 08:12:38;;;;;;;51.58;22.05;;;;;;;7.37;100.00;103315.44;5048859;28;20066;-76
2021/12/16 08:15:05;;;;;;;55.08;23.20;;;;;;;7.41;100.00;103314.38;5076534;28;20059;-74
2021/12/16 08:17:31;;;;;;;70.03;23.95;;;;;;;7.34;100.00;103331.22;5080028;28;20040;-75
2021/12/16 08:19:57;;;;;;;64.10;23.35;;;;;;;7.31;100.00;103326.13;5061361;28;20036;-76
2021/12/16 08:22:23;;;;;;;62.50;24.55;;;;;;;7.30;100.00;103329.63;5076681;28;20413;-76
2021/12/16 08:24:48;;;;;;;53.85;22.23;;;;;;;7.35;100.00;103334.69;5059622;28;20111;-76
2021/12/16 08:27:15;;;;;;;52.70;22.55;;;;;;;7.33;100.00;103326.06;5042382;28;20074;-76
2021/12/16 08:29:41;;;;;;;59.72;23.63;;;;;;;7.37;100.00;103348.53;5040525;28;20036;-76
2021/12/16 08:32:08;;;;;;;65.30;23.52;;;;;;;7.38;100.00;103324.97;5074544;28;20081;-76
2021/12/16 08:34:37;;;;;;;64.70;21.58;;;;;;;7.47;100.00;103328.94;5072902;28;20418;-76
2021/12/16 08:37:04;;;;;;;57.85;20.08;;;;;;;7.53;100.00;103333.91;5077050;28;20044;-75
2021/12/16 08:39:30;;;;;;;48.63;20.08;;;;;;;7.47;100.00;103344.63;5075608;28;20043;-77
2021/12/16 08:41:59;;;;;;;55.67;19.98;;;;;;;7.45;100.00;103343.00;5055283;28;20070;-77
2021/12/16 08:44:26;;;;;;;53.53;19.63;;;;;;;7.50;100.00;103352.34;5060277;28;20028;-75
2021/12/16 08:46:56;;;;;;;43.45;18.45;;;;;;;7.49;100.00;103358.47;5041116;28;20036;-76
2021/12/16 08:49:23;;;;;;;42.30;17.20;;;;;;;7.59;100.00;103358.94;5046878;28;20607;-76
2021/12/16 08:51:51;;;;;;;51.47;17.90;;;;;;;7.57;100.00;103359.03;5076870;28;20031;-76
2021/12/16 08:54:18;;;;;;;42.00;16.50;;;;;;;7.59;100.00;103359.81;5057133;28;20060;-76
2021/12/16 08:56:46;;;;;;;42.90;16.33;;;;;;;7.53;100.00;103352.19;5061750;28;20506;-76
2021/12/16 08:59:12;;;;;;;44.05;16.45;;;;;;;7.70;100.00;103363.72;5027780;28;20082;-76
2021/12/16 09:01:47;;;;;;;43.40;16.70;;;;;;;7.66;100.00;103360.38;5041124;28;20144;-76
2021/12/16 09:04:15;;;;;;;40.88;16.33;;;;;;;7.70;100.00;103369.78;5084633;28;20092;-75
2021/12/16 09:06:41;;;;;;;39.58;15.32;;;;;;;7.68;100.00;103381.22;5059386;28;20044;-76
2021/12/16 09:09:07;;;;;;;34.42;15.80;;;;;;;7.68;100.00;103383.84;5059030;28;20065;-76
2021/12/16 09:11:39;;;;;;;39.03;16.40;;;;;;;7.70;100.00;103389.84;5059289;28;20043;-77
2021/12/16 09:14:05;;;;;;;35.55;15.57;;;;;;;7.69;100.00;103382.94;5056171;28;20104;-75
2021/12/16 09:16:33;;;;;;;32.92;14.30;;;;;;;7.74;100.00;103379.22;5058671;28;20040;-77
2021/12/16 09:19:00;;;;;;;34.00;13.90;;;;;;;7.80;100.00;103385.97;5055166;28;20119;-75
2021/12/16 09:21:30;;;;;;;30.08;12.77;;;;;;;7.77;100.00;103384.31;5057859;28;20459;-75
2021/12/16 09:23:57;;;;;;;32.60;12.77;;;;;;;7.75;100.00;103385.28;5057569;28;20028;-76
2021/12/16 09:26:24;;;;;;;27.30;12.52;;;;;;;7.71;100.00;103376.72;5056323;28;21070;-76
2021/12/16 09:28:51;;;;;;;26.33;12.50;;;;;;;7.77;100.00;103378.25;5059674;28;20024;-76
2021/12/16 09:31:20;;;;;;;30.08;12.38;;;;;;;7.82;100.00;103371.06;5055943;28;20086;-76
2021/12/16 09:33:50;;;;;;;24.15;10.85;;;;;;;7.93;100.00;103367.97;5076193;28;20032;-76
2021/12/16 09:36:19;;;;;;;22.42;9.80;;;;;;;7.95;100.00;103379.25;5059255;28;20036;-77
2021/12/16 09:38:47;;;;;;;23.75;9.45;;;;;;;7.87;100.00;103382.16;5065462;28;20115;-76
2021/12/16 09:41:13;;;;;;;18.30;9.23;;;;;;;8.10;100.00;103388.19;5058953;28;20032;-77
2021/12/16 09:43:41;;;;;;;22.55;9.35;;;;;;;8.09;100.00;103395.19;5050140;28;20031;-75
2021/12/16 09:46:11;;;;;;;20.65;9.43;;;;;;;8.15;100.00;103400.13;5074800;28;20043;-76
2021/12/16 09:48:39;;;;;;;18.33;9.88;;;;;;;8.23;100.00;103384.16;5058914;28;20043;-74
2021/12/16 09:51:09;;;;;;;19.27;9.95;;;;;;;8.35;100.00;103391.44;5059729;28;20486;-75
2021/12/16 09:53:39;;;;;;;20.73;9.70;;;;;;;8.54;100.00;103407.19;5072546;28;20093;-76
2021/12/16 09:56:09;;;;;;;21.58;9.10;;;;;;;8.69;100.00;103402.22;5048971;28;20032;-76
2021/12/16 09:58:40;;;;;;;18.20;7.75;;;;;;;8.68;100.00;103408.34;5071337;28;20122;-74
2021/12/16 10:01:09;;;;;;;16.67;8.45;;;;;;;8.74;100.00;103419.41;5074454;28;20024;-75
2021/12/16 10:03:38;;;;;;;17.55;8.35;;;;;;;8.72;100.00;103416.00;5071475;28;20047;-76
2021/12/16 10:06:04;;;;;;;18.42;7.90;;;;;;;8.66;100.00;103423.28;5042569;28;20039;-76
2021/12/16 10:08:30;;;;;;;18.25;8.02;;;;;;;8.61;100.00;103423.50;5059627;28;20062;-75
2021/12/16 10:10:56;;;;;;;19.80;7.30;;;;;;;8.60;100.00;103423.56;5058387;28;20039;-76
2021/12/16 10:13:33;;;;;;;14.27;7.75;;;;;;;8.62;100.00;103422.56;5056384;28;20774;-76
2021/12/16 10:18:34;;;;;;;18.63;8.20;;;;;;;8.65;100.00;103430.28;5059061;28;20147;-76
2021/12/16 10:21:04;;;;;;;21.00;8.77;;;;;;;8.63;100.00;103418.19;5060532;28;20508;-76
2021/12/16 10:23:42;;;;;;;18.17;8.40;;;;;;;8.67;100.00;103430.22;5074853;28;20036;-77
2021/12/16 10:26:16;;;;;;;21.73;7.78;;;;;;;8.77;100.00;103426.25;5090992;28;20032;-76
2021/12/16 10:28:45;;;;;;;13.60;7.10;;;;;;;8.82;100.00;103429.53;5027727;28;20044;-77
2021/12/16 10:31:26;;;;;;;13.73;7.00;;;;;;;8.80;100.00;103428.75;5073192;28;20032;-76
2021/12/16 10:33:57;;;;;;;16.25;6.70;;;;;;;8.73;100.00;103440.41;5067634;28;20035;-76
2021/12/16 10:36:39;;;;;;;17.58;7.25;;;;;;;8.60;100.00;103437.47;5051999;28;20047;-76
2021/12/16 10:39:12;;;;;;;18.92;6.78;;;;;;;8.61;100.00;103443.56;5088458;28;20035;-75
2021/12/16 10:41:47;;;;;;;18.10;6.53;;;;;;;8.45;100.00;103427.69;5071417;28;20036;-75
2021/12/16 10:44:32;;;;;;;19.27;6.43;;;;;;;8.39;100.00;103428.78;5042254;28;20380;-76
2021/12/16 10:47:12;;;;;;;16.17;6.57;;;;;;;8.37;100.00;103438.47;5057835;28;20174;-76
2021/12/16 10:49:52;;;;;;;17.90;7.20;;;;;;;8.27;100.00;103440.63;5074309;28;20050;-75
2021/12/16 10:52:27;;;;;;;13.73;6.75;;;;;;;8.32;100.00;103441.25;5056269;28;20036;-76
2021/12/16 10:54:54;;;;;;;16.77;6.40;;;;;;;8.28;100.00;103444.91;5059860;28;20123;-75
2021/12/16 10:57:28;;;;;;;16.70;4.78;;;;;;;8.19;100.00;103440.94;5076304;28;20033;-75
2021/12/16 11:00:01;;;;;;;13.90;5.18;;;;;;;8.24;100.00;103437.28;5078310;28;20027;-76
2021/12/16 11:02:30;;;;;;;12.68;4.30;;;;;;;8.22;100.00;103431.28;5091966;28;20028;-76
2021/12/16 11:04:55;;;;;;;14.00;4.75;;;;;;;8.23;100.00;103443.41;5061000;28;20056;-75
2021/12/16 11:07:32;;;;;;;17.65;5.78;;;;;;;8.32;100.00;103454.31;5075165;28;20044;-75
2021/12/16 11:10:01;;;;;;;13.10;5.57;;;;;;;8.44;100.00;103449.53;5061347;28;20046;-77
2021/12/16 11:12:36;;;;;;;20.15;6.13;;;;;;;8.51;100.00;103454.44;5075636;28;20489;-77
2021/12/16 11:15:27;;;;;;;20.88;6.88;;;;;;;8.58;100.00;103460.25;5040157;28;20493;-76
2021/12/16 11:17:55;;;;;;;19.25;6.13;;;;;;;8.71;100.00;103456.16;5066518;28;20071;-76
2021/12/16 11:20:43;;;;;;;18.27;6.85;;;;;;;8.72;100.00;103464.88;5055596;28;20593;-75
2021/12/16 11:23:19;;;;;;;17.50;5.90;;;;;;;8.83;100.00;103462.63;5057755;28;20095;-76
2021/12/16 11:25:52;;;;;;;18.33;6.25;;;;;;;8.87;100.00;103469.44;5050936;28;20056;-76
2021/12/16 11:28:24;;;;;;;17.77;7.18;;;;;;;8.90;100.00;103473.69;5073940;28;20031;-76
2021/12/16 11:30:53;;;;;;;15.43;7.07;;;;;;;8.82;100.00;103463.56;5059078;28;20078;-75
2021/12/16 11:33:26;;;;;;;19.52;7.35;;;;;;;8.79;100.00;103463.69;5039707;28;20833;-75
2021/12/16 11:35:55;;;;;;;;;;;;;;;8.82;100.00;103460.94;5043540;28;20035;-76
2021/12/16 11:38:27;;;;;;;16.67;5.65;;;;;;;8.85;100.00;103465.16;5056972;28;20869;-76
2021/12/16 11:41:18;;;;;;;12.50;5.20;;;;;;;8.77;100.00;103474.22;5074986;28;20047;-76
2021/12/16 11:44:03;;;;;;;17.00;4.88;;;;;;;8.74;100.00;103469.13;5047105;28;20058;-77
2021/12/16 11:46:51;;;;;;;17.92;4.90;;;;;;;8.75;100.00;103480.44;5071275;28;20075;-76
2021/12/16 11:49:37;;;;;;;22.70;5.13;;;;;;;8.64;100.00;103474.81;5057801;28;20039;-76
2021/12/16 11:52:11;;;;;;;13.35;4.60;;;;;;;8.70;100.00;103480.66;5074402;28;20516;-75
2021/12/16 11:54:39;;;;;;;9.40;3.83;;;;;;;8.65;100.00;103485.22;5055451;28;20032;-77
2021/12/16 11:57:11;;;;;;;15.32;4.03;;;;;;;8.78;100.00;103485.56;5090597;28;20040;-76
2021/12/16 11:59:46;;;;;;;18.37;4.03;;;;;;;8.65;100.00;103481.78;5072600;28;20052;-76
2021/12/16 12:02:32;;;;;;;23.42;3.83;;;;;;;8.68;100.00;103492.09;5059606;28;20642;-76
2021/12/16 12:05:24;;;;;;;17.48;3.03;;;;;;;8.65;100.00;103492.25;5070833;28;20028;-76
2021/12/16 12:07:56;;;;;;;21.58;3.15;;;;;;;8.64;100.00;103493.97;5056331;28;20060;-76
2021/12/16 12:10:48;;;;;;;20.85;3.45;;;;;;;8.68;100.00;103499.94;5071621;28;20028;-76
2021/12/16 12:13:18;;;;;;;15.18;3.40;;;;;;;8.63;100.00;103488.84;5072510;28;20036;-76
2021/12/16 12:16:07;;;;;;;17.95;3.17;;;;;;;8.61;100.00;103498.50;5056854;28;20038;-76
2021/12/16 12:18:57;;;;;;;17.85;3.67;;;;;;;8.57;100.00;103501.25;5092273;28;20040;-76
2021/12/16 12:21:26;;;;;;;18.20;3.08;;;;;;;8.61;100.00;103498.50;5052347;28;20512;-76
2021/12/16 12:23:55;;;;;;;14.85;2.05;;;;;;;8.62;100.00;103493.19;5074181;28;20024;-75
2021/12/16 12:26:22;;;;;;;14.13;2.50;;;;;;;8.69;100.00;103485.94;5055826;28;20039;-75
2021/12/16 12:28:53;;;;;;;18.52;2.88;;;;;;;8.71;100.00;103482.34;5090720;28;20031;-76
2021/12/16 12:31:25;;;;;;;14.75;2.30;;;;;;;8.70;100.00;103493.75;5054000;28;20073;-76
2021/12/16 12:33:52;;;;;;;14.38;2.63;;;;;;;8.86;100.00;103487.81;5031313;28;20194;-76
2021/12/16 12:36:20;;;;;;;13.35;2.00;;;;;;;9.01;100.00;103495.00;5056599;28;20031;-77
2021/12/16 12:38:46;;;;;;;12.93;2.20;;;;;;;9.10;100.00;103502.44;5072871;28;20036;-76
2021/12/16 12:41:12;;;;;;;14.20;2.20;;;;;;;9.18;100.00;103499.47;5056576;28;20062;-76
2021/12/16 12:43:38;;;;;;;14.90;2.28;;;;;;;9.28;100.00;103507.75;5056371;28;20039;-76
2021/12/16 12:46:07;;;;;;;14.80;2.47;;;;;;;9.24;100.00;103514.06;5072934;28;20032;-76
2021/12/16 12:48:35;;;;;;;13.60;2.47;;;;;;;9.20;100.00;103518.56;5058091;28;20073;-76
2021/12/16 12:51:04;;;;;;;12.35;2.42;;;;;;;9.11;100.00;103519.81;5059670;28;20039;-76
2021/12/16 12:53:47;;;;;;;13.38;2.47;;;;;;;9.08;100.00;103513.88;5055810;28;20032;-76
2021/12/16 12:56:21;;;;;;;14.55;2.63;;;;;;;9.12;100.00;103518.09;5039192;28;20044;-77
2021/12/16 12:58:54;;;;;;;19.15;2.70;;;;;;;8.81;100.00;103515.97;5072324;28;20032;-76
2021/12/16 13:01:32;;;;;;;;;;;;;;;8.84;100.00;103521.91;5073494;28;20062;-76
2021/12/16 13:04:05;;;;;;;11.88;2.28;;;;;;;8.73;100.00;103521.53;5072976;28;19916;-76
2021/12/16 13:06:30;;;;;;;13.65;2.55;;;;;;;8.69;100.00;103517.34;5042534;28;20024;-75
2021/12/16 13:08:56;;;;;;;12.70;2.30;;;;;;;8.67;100.00;103514.78;5061418;28;20052;-76
2021/12/16 13:11:29;;;;;;;12.10;2.65;;;;;;;8.61;100.00;103509.84;5057829;28;20565;-77
2021/12/16 13:14:36;;;;;;;15.27;3.10;;;;;;;8.64;100.00;103514.06;5054541;28;20023;-76
2021/12/16 13:28:03;;;;;;;15.13;2.63;;;;;;;7.97;100.00;103537.69;5072931;28;20047;-76
2021/12/16 13:30:32;;;;;;;15.55;2.58;;;;;;;7.86;100.00;103545.09;5070939;28;20060;-75
2021/12/16 13:33:22;;;;;;;17.45;2.97;;;;;;;7.81;100.00;103547.03;5072589;28;20131;-76
2021/12/16 13:36:01;;;;;;;15.32;2.33;;;;;;;7.78;100.00;103540.19;5052832;28;20024;-76
2021/12/16 13:38:40;;;;;;;13.68;2.40;;;;;;;7.86;100.00;103536.44;5053850;28;20615;-76
2021/12/16 13:41:21;;;;;;;13.98;3.40;;;;;;;7.89;100.00;103542.38;5071753;28;20042;-76
2021/12/16 13:44:06;;;;;;;17.17;2.65;;;;;;;7.94;100.00;103545.66;5034089;28;20030;-76
2021/12/16 13:47:00;;;;;;;13.90;2.58;;;;;;;8.01;100.00;103538.44;5086462;28;20383;-76
2021/12/16 14:06:34;;;;;;;13.15;2.20;;;;;;;7.75;100.00;103548.13;5070412;28;20040;-77
2021/12/16 14:09:16;;;;;;;13.23;2.50;;;;;;;7.63;100.00;103540.78;5037929;28;20041;-77
2021/12/16 14:14:48;;;;;;;18.73;3.65;;;;;;;7.50;100.00;103529.09;5056870;28;20135;-77
2021/12/16 14:24:10;;;;;;;14.45;3.05;;;;;;;6.94;100.00;103512.84;5054828;28;20034;-77
2021/12/16 14:27:06;;;;;;;16.73;3.28;;;;;;;6.79;100.00;103495.13;5054980;28;20042;-76
2021/12/16 14:35:08;;;;;;;15.95;3.25;;;;;;;6.60;100.00;103518.41;5060224;28;20046;-76
2021/12/16 14:37:49;;;;;;;15.30;2.70;;;;;;;6.58;100.00;103515.00;5074011;28;20139;-76
2021/12/16 14:40:37;;;;;;;15.93;2.90;;;;;;;6.50;100.00;103523.09;5070653;28;20051;-77
2021/12/16 14:50:45;;;;;;;12.80;2.95;;;;;;;6.37;100.00;103555.69;5084218;28;20786;-77
2021/12/16 14:53:19;;;;;;;18.02;3.15;;;;;;;6.37;100.00;103558.28;5056114;28;20039;-77
2021/12/16 14:55:47;;;;;;;19.90;3.30;;;;;;;6.39;100.00;103559.94;5050068;28;20047;-77
2021/12/16 14:58:13;;;;;;;24.38;3.25;;;;;;;6.35;100.00;103560.09;5078009;28;20035;-77
2021/12/16 15:00:45;;;;;;;16.80;3.08;;;;;;;6.41;100.00;103560.72;5058164;28;20043;-77
2021/12/16 15:03:22;;;;;;;13.90;2.90;;;;;;;6.37;100.00;103573.94;5091338;28;20032;-77